Frankenthal- Eppstein (101 m) : 20.09.2018
Datum Zeit
(MESZ)
Temp.
(2 m)
Temp.
(20 cm)
Luftfeuchte Blattnässe Nieder-
schlag
Wind Zeit
(MESZ)
[°C] [°C] [%] [%] [mm] [m/s]
20.09.2018 08:40 17.9 18.6 83 11 0.0 1.1 08:40
  08:35 17.3 18.0 83 13 0.0 0.8 08:35
  08:30 17.0 17.7 84 10 0.0 0.0 08:30
  08:25 16.9 17.1 85 12 0.0 0.0 08:25
  08:20 16.8 16.5 85 14 0.0 0.0 08:20
  08:15 16.4 15.9 85 16 0.0 0.0 08:15
  08:10 16.4 15.7 87 19 0.0 0.0 08:10
  08:05 16.3 15.6 87 19 0.0 0.0 08:05
  08:00 16.1 15.2 87 26 0.0 0.0 08:00
  07:55 16.0 15.3 88 35 0.0 0.0 07:55
  07:50 15.9 15.2 88 52 0.0 0.0 07:50
  07:45 15.4 14.5 87 76 0.0 0.0 07:45
  07:40 15.3 14.4 88 57 0.0 0.0 07:40
  07:35 15.1 14.3 88 56 0.0 0.0 07:35
  07:30 15.0 14.1 88 68 0.0 0.0 07:30
  07:25 14.9 13.9 88 100 0.0 0.0 07:25
  07:20 14.8 13.9 88 100 0.0 0.0 07:20
  07:15 14.8 13.9 88 100 0.0 0.0 07:15
  07:10 14.8 14.0 88 100 0.0 0.0 07:10
  07:05 14.8 14.0 87 100 0.0 0.0 07:05
  07:00 14.9 14.1 87 100 0.0 0.0 07:00
  06:55 14.9 14.1 87 72 0.0 0.0 06:55
  06:50 14.8 14.0 87 71 0.0 0.0 06:50
  06:45 14.8 14.0 86 100 0.0 0.0 06:45
20.09.2018 06:40 14.9 14.1 86 100 0.0 0.0 06:40
  06:35 15.1 14.2 85 45 0.0 0.5 06:35
  06:30 15.2 14.3 85 51 0.0 0.0 06:30
  06:25 15.4 14.3 86 60 0.0 0.0 06:25
  06:20 15.3 14.2 86 100 0.0 0.0 06:20
  06:15 15.4 14.3 84 55 0.0 0.0 06:15
  06:10 15.8 14.3 85 89 0.0 0.0 06:10
  06:05 15.8 14.3 86 72 0.0 0.0 06:05
  06:00 15.6 14.3 86 100 0.0 0.0 06:00
  05:55 15.5 14.3 87 100 0.0 0.0 05:55
  05:50 15.3 14.1 87 70 0.0 0.0 05:50
  05:45 15.2 13.9 86 100 0.0 0.0 05:45
  05:40 15.2 14.0 86 91 0.0 0.0 05:40
  05:35 15.3 14.0 86 100 0.0 0.0 05:35
  05:30 15.4 14.1 86 100 0.0 0.0 05:30
  05:25 15.4 14.2 86 100 0.0 0.0 05:25
  05:20 15.5 14.2 86 100 0.0 0.0 05:20
  05:15 15.4 14.3 86 100 0.0 0.0 05:15
  05:10 15.4 14.4 85 100 0.0 0.0 05:10
  05:05 15.4 14.5 85 100 0.0 0.0 05:05
  05:00 15.5 14.5 84 80 0.0 0.0 05:00
  04:55 15.5 14.6 84 51 0.0 0.0 04:55
  04:50 15.6 14.6 84 37 0.0 0.0 04:50
  04:45 15.6 14.5 85 35 0.0 0.0 04:45
20.09.2018 04:40 15.5 14.3 85 43 0.0 0.0 04:40
  04:35 15.5 14.2 84 74 0.0 0.0 04:35
  04:30 15.5 14.2 83 84 0.0 0.0 04:30
  04:25 15.6 14.3 82 46 0.0 0.0 04:25
  04:20 15.7 14.3 81 44 0.0 0.0 04:20
  04:15 15.8 14.4 81 31 0.0 0.0 04:15
  04:10 15.9 14.5 80 65 0.0 0.0 04:10
  04:05 16.2 14.6 81 57 0.0 0.0 04:05
  04:00 16.3 14.6 82 73 0.0 0.0 04:00
  03:55 16.3 14.7 82 100 0.0 0.0 03:55
  03:50 16.2 14.7 82 81 0.0 0.0 03:50
  03:45 16.2 14.7 81 63 0.0 0.0 03:45
  03:40 16.3 14.8 79 22 0.0 0.0 03:40
  03:35 16.5 14.8 80 31 0.0 0.0 03:35
  03:30 16.5 14.9 81 26 0.0 0.0 03:30
  03:25 16.3 14.9 80 24 0.0 0.0 03:25
  03:20 16.3 14.9 80 33 0.0 0.0 03:20
  03:15 16.4 14.9 80 30 0.0 0.0 03:15
  03:10 16.5 15.0 78 14 0.0 0.0 03:10
  03:05 16.8 15.1 80 13 0.0 0.0 03:05
  03:00 16.5 15.0 80 14 0.0 0.0 03:00
  02:55 16.4 15.0 77 14 0.0 0.0 02:55
  02:50 16.6 15.0 78 15 0.0 0.0 02:50
  02:45 16.8 15.1 78 17 0.0 0.0 02:45
20.09.2018 02:40 16.9 15.2 79 21 0.0 0.0 02:40
  02:35 16.9 15.2 80 55 0.0 0.0 02:35
  02:30 17.0 15.3 79 18 0.0 0.0 02:30
  02:25 17.3 15.4 78 13 0.0 0.0 02:25
  02:20 17.5 15.5 80 15 0.0 0.2 02:20
  02:15 17.1 15.4 80 14 0.0 0.1 02:15
  02:10 16.9 15.4 80 13 0.0 0.0 02:10
  02:05 16.9 15.3 77 11 0.0 0.0 02:05
  02:00 16.9 15.3 76 11 0.0 0.0 02:00
  01:55 17.1 15.3 77 12 0.0 0.0 01:55
  01:50 17.1 15.3 78 13 0.0 0.0 01:50
  01:45 17.2 15.4 78 19 0.0 0.0 01:45
  01:40 17.1 15.5 77 17 0.0 0.0 01:40
  01:35 17.5 15.7 78 13 0.0 0.0 01:35
  01:30 17.5 15.7 78 17 0.0 0.0 01:30
  01:25 17.4 15.7 78 13 0.0 0.0 01:25
  01:20 17.3 15.8 76 16 0.0 0.0 01:20
  01:15 17.4 15.9 75 11 0.0 0.0 01:15
  01:10 17.6 16.1 76 11 0.0 0.0 01:10
  01:05 17.6 16.2 76 9 0.0 0.0 01:05
  01:00 17.7 16.3 76 11 0.0 0.0 01:00
  00:55 17.7 16.5 75 9 0.0 0.0 00:55
  00:50 17.8 16.6 72 8 0.0 0.0 00:50
  00:45 18.1 16.7 71 7 0.0 0.0 00:45
20.09.2018 00:40 18.3 16.6 75 7 0.0 0.0 00:40
  00:35 18.0 16.5 76 7 0.0 0.0 00:35
  00:30 17.5 16.3 76 7 0.0 0.0 00:30
  00:25 17.5 16.2 76 8 0.0 0.4 00:25
  00:20 17.5 15.9 74 8 0.0 0.5 00:20
  00:15 17.8 15.8 72 7 0.0 0.0 00:15
  00:10 17.9 15.9 72 8 0.0 0.0 00:10
  00:05 18.1 16.0 72 7 0.0 0.0 00:05
  00:00 18.1 16.0 74 8 0.0 0.0 00:00
19.09.2018 23:55 18.0 16.1 74 9 0.0 0.0 23:55
  23:50 18.0 16.2 75 10 0.0 0.0 23:50
  23:45 18.1 16.3 75 8 0.0 0.0 23:45
  23:40 18.0 16.1 75 8 0.0 0.0 23:40
  23:35 18.0 16.1 71 7 0.0 0.0 23:35
  23:30 18.3 16.3 68 6 0.0 0.0 23:30
  23:25 18.6 16.3 72 8 0.0 0.0 23:25
  23:20 18.3 16.4 70 7 0.0 0.0 23:20
  23:15 18.5 16.4 72 8 0.0 0.0 23:15
  23:10 18.5 16.5 73 10 0.0 0.0 23:10
  23:05 18.6 16.6 72 8 0.0 0.0 23:05
  23:00 18.9 16.8 69 6 0.0 0.0 23:00
  22:55 19.1 16.9 70 6 0.0 0.0 22:55
  22:50 19.1 17.1 70 7 0.0 0.0 22:50
  22:45 19.2 17.3 69 7 0.0 0.0 22:45
  22:40 19.5 17.5 69 6 0.0 0.0 22:40
  22:35 19.6 17.6 70 6 0.0 0.0 22:35
  22:30 19.5 17.5 71 6 0.0 0.4 22:30
  22:25 19.3 17.4 71 7 0.0 0.0 22:25
  22:20 19.5 17.5 69 6 0.0 0.0 22:20
  22:15 19.6 17.5 68 6 0.0 0.3 22:15
  22:10 19.7 17.5 68 5 0.0 0.2 22:10
  22:05 19.7 17.5 68 5 0.0 0.0 22:05
  22:00 19.7 17.6 68 5 0.0 0.0 22:00
19.09.2018 21:55 19.8 17.7 69 6 0.0 0.0 21:55
  21:50 19.9 17.8 68 6 0.0 0.0 21:50
  21:45 20.1 18.0 68 6 0.0 0.0 21:45
  21:40 20.4 18.2 67 6 0.0 0.0 21:40
  21:35 20.6 18.4 66 6 0.0 0.0 21:35
  21:30 20.8 18.5 65 5 0.0 0.0 21:30
  21:25 21.0 18.6 64 5 0.0 0.0 21:25
  21:20 21.2 18.7 63 5 0.0 0.0 21:20
  21:15 21.4 18.7 62 5 0.0 0.0 21:15
  21:10 21.5 18.9 63 5 0.0 0.0 21:10
  21:05 21.5 19.2 63 5 0.0 0.0 21:05
  21:00 21.6 19.4 63 5 0.0 0.0 21:00
  20:55 21.9 19.6 62 4 0.0 0.0 20:55
  20:50 22.2 20.0 60 4 0.0 0.0 20:50
  20:45 22.7 20.3 59 4 0.0 0.0 20:45
  20:40 23.0 20.4 58 4 0.0 0.0 20:40
  20:35 23.3 20.6 57 4 0.0 0.0 20:35
  20:30 23.5 20.8 57 4 0.0 0.0 20:30
  20:25 23.7 20.8 56 4 0.0 0.0 20:25
  20:20 23.9 20.9 56 4 0.0 0.0 20:20
  20:15 24.0 20.7 55 4 0.0 0.0 20:15
  20:10 24.2 20.7 54 4 0.0 0.0 20:10
  20:05 24.5 20.8 54 4 0.0 0.0 20:05
  20:00 24.6 21.1 54 4 0.0 0.1 20:00
19.09.2018 19:55 24.8 21.3 55 4 0.0 0.2 19:55
  19:50 25.0 21.5 54 4 0.0 0.5 19:50
  19:45 25.1 21.6 54 4 0.0 0.1 19:45
  19:40 25.5 21.9 53 4 0.0 0.0 19:40
  19:35 25.7 22.2 52 4 0.0 0.0 19:35
  19:30 26.0 22.6 51 4 0.0 0.1 19:30
  19:25 26.3 23.0 51 4 0.0 0.0 19:25
  19:20 26.6 23.5 51 4 0.0 0.2 19:20
  19:15 26.8 23.9 50 4 0.0 0.2 19:15
  19:10 27.1 24.3 49 4 0.0 0.1 19:10
  19:05 27.4 24.7 49 4 0.0 0.5 19:05
  19:00 27.5 25.1 49 4 0.0 0.2 19:00
  18:55 27.7 25.3 48 4 0.0 0.1 18:55
  18:50 28.0 25.7 48 4 0.0 0.2 18:50
  18:45 28.3 25.9 47 4 0.0 0.2 18:45
  18:40 28.2 26.4 47 4 0.0 0.1 18:40
  18:35 28.6 26.6 46 4 0.0 0.0 18:35
  18:30 28.9 27.0 46 4 0.0 0.1 18:30
  18:25 29.1 27.7 46 4 0.0 0.5 18:25
  18:20 29.3 28.0 46 4 0.0 0.6 18:20
  18:15 29.3 27.8 45 4 0.0 0.1 18:15
  18:10 29.4 28.5 45 4 0.0 0.2 18:10
  18:05 29.6 28.8 45 4 0.0 0.1 18:05
  18:00 29.7 28.7 44 4 0.0 0.4 18:00
19.09.2018 17:55 29.9 29.2 44 4 0.0 0.9 17:55
  17:50 30.0 29.7 44 4 0.0 1.6 17:50
  17:45 30.1 30.0 43 4 0.0 1.9 17:45
  17:40 30.1 30.1 43 4 0.0 2.5 17:40
  17:35 30.3 30.3 43 4 0.0 2.3 17:35
  17:30 30.3 30.2 44 4 0.0 1.8 17:30
  17:25 30.4 30.4 44 4 0.0 1.9 17:25
  17:20 30.4 30.6 43 5 0.0 1.9 17:20
  17:15 30.4 30.4 43 4 0.0 1.4 17:15
  17:10 30.2 30.2 43 4 0.0 1.8 17:10
  17:05 30.4 30.7 43 5 0.0 2.3 17:05
  17:00 30.4 31.1 44 5 0.0 2.8 17:00
  16:55 30.3 30.8 44 5 0.0 2.7 16:55
  16:50 30.2 31.0 44 5 0.0 2.8 16:50
  16:45 30.1 30.8 44 5 0.0 3.4 16:45
  16:40 29.8 30.3 44 5 0.0 2.9 16:40
  16:35 30.1 30.6 44 5 0.0 2.9 16:35
  16:30 30.5 31.4 43 5 0.0 2.6 16:30
  16:25 30.9 32.2 43 5 0.0 2.5 16:25
  16:20 30.7 32.0 43 5 0.0 2.3 16:20
  16:15 31.0 32.3 43 5 0.0 2.5 16:15
  16:10 31.1 32.6 43 5 0.0 2.3 16:10
  16:05 30.6 32.3 44 5 0.0 2.7 16:05
  16:00 30.8 32.3 44 5 0.0 2.4 16:00
19.09.2018 15:55 30.5 32.4 44 5 0.0 2.8 15:55
  15:50 30.4 32.5 44 5 0.0 2.8 15:50
  15:45 30.5 32.4 44 5 0.0 3.0 15:45
  15:40 30.7 32.7 44 5 0.0 3.2 15:40
  15:35 30.6 32.7 44 5 0.0 3.4 15:35
  15:30 30.3 32.5 44 5 0.0 3.6 15:30
  15:25 30.4 32.8 45 5 0.0 2.9 15:25
  15:20 30.2 32.6 45 5 0.0 3.0 15:20
  15:15 30.1 32.7 45 5 0.0 3.3 15:15
  15:10 30.7 33.2 44 6 0.0 3.2 15:10
  15:05 30.3 32.7 45 6 0.0 2.8 15:05
  15:00 30.3 32.9 45 6 0.0 3.1 15:00
  14:55 30.1 32.7 44 6 0.0 2.6 14:55
  14:50 30.1 32.9 45 6 0.0 3.0 14:50
  14:45 30.4 33.3 45 6 0.0 3.1 14:45
  14:40 30.1 33.3 46 6 0.0 3.3 14:40
  14:35 29.9 33.2 46 6 0.0 2.8 14:35
  14:30 29.8 33.1 46 6 0.0 3.1 14:30
  14:25 29.8 33.1 46 6 0.0 2.7 14:25
  14:20 29.8 33.3 45 6 0.0 2.5 14:20
  14:15 30.0 33.3 45 6 0.0 2.8 14:15
  14:10 29.9 33.3 45 6 0.0 2.3 14:10
  14:05 29.9 33.4 47 6 0.0 3.0 14:05
  14:00 29.4 32.9 47 6 0.0 2.8 14:00
19.09.2018 13:55 29.6 32.9 47 6 0.0 3.0 13:55
  13:50 29.8 33.2 48 6 0.0 2.9 13:50
  13:45 29.5 33.1 49 6 0.0 3.3 13:45
  13:40 29.3 33.1 49 6 0.0 3.3 13:40
  13:35 29.3 32.9 49 6 0.0 2.8 13:35
  13:30 29.4 33.0 49 6 0.0 3.1 13:30
  13:25 29.3 32.8 49 6 0.0 3.2 13:25
  13:20 29.4 32.7 49 6 0.0 2.6 13:20
  13:15 29.3 32.5 50 6 0.0 2.8 13:15
  13:10 28.6 31.5 49 6 0.0 2.5 13:10
  13:05 29.4 32.8 50 6 0.0 2.5 13:05
  13:00 28.6 31.4 51 6 0.0 2.4 13:00
  12:55 29.0 32.5 51 7 0.0 2.5 12:55
  12:50 28.9 32.0 52 7 0.0 1.9 12:50
  12:45 28.3 31.4 52 7 0.0 1.8 12:45
  12:40 28.3 31.2 53 7 0.0 2.0 12:40
  12:35 28.3 31.5 53 7 0.0 2.0 12:35
  12:30 28.5 31.6 54 7 0.0 2.5 12:30
  12:25 28.1 31.3 54 7 0.0 1.7 12:25
  12:20 27.9 31.2 54 7 0.0 1.9 12:20
  12:15 27.7 31.0 54 7 0.0 2.0 12:15
  12:10 27.7 31.0 55 7 0.0 2.0 12:10
  12:05 27.5 30.4 56 7 0.0 1.8 12:05
  12:00 27.0 29.8 57 7 0.0 1.8 12:00
19.09.2018 11:55 27.0 29.9 57 7 0.0 2.0 11:55
  11:50 26.9 29.8 58 7 0.0 1.7 11:50
  11:45 26.6 29.5 59 7 0.0 1.8 11:45
  11:40 26.3 29.2 60 7 0.0 2.0 11:40
  11:35 26.1 29.0 60 7 0.0 2.2 11:35
  11:30 26.0 28.7 61 7 0.0 2.0 11:30
  11:25 25.8 28.6 62 7 0.0 2.5 11:25
  11:20 25.5 28.3 63 7 0.0 2.5 11:20
  11:15 25.2 28.1 62 7 0.0 2.5 11:15
  11:10 25.1 27.7 63 7 0.0 1.9 11:10
  11:05 24.9 27.6 63 7 0.0 2.1 11:05
  11:00 24.6 27.3 64 7 0.0 1.7 11:00
  10:55 24.5 26.9 65 7 0.0 1.4 10:55
  10:50 24.2 26.8 65 7 0.0 1.4 10:50
  10:45 23.7 26.2 66 7 0.0 1.6 10:45
  10:40 23.5 26.0 67 7 0.0 1.8 10:40
  10:35 23.4 25.9 67 7 0.0 1.9 10:35
  10:30 23.2 25.5 68 7 0.0 1.9 10:30
  10:25 23.1 25.3 68 7 0.0 2.1 10:25
  10:20 22.9 25.0 68 7 0.0 1.6 10:20
  10:15 22.9 24.5 68 7 0.0 1.2 10:15
  10:10 22.2 23.9 69 7 0.0 0.9 10:10
  10:05 22.1 23.8 69 7 0.0 1.0 10:05
  10:00 21.7 23.5 70 7 0.0 0.8 10:00
19.09.2018 09:55 21.6 23.4 71 7 0.0 1.1 09:55
  09:50 21.5 23.3 71 7 0.0 1.3 09:50
  09:45 21.3 22.8 73 7 0.0 1.0 09:45
  09:40 20.8 22.7 73 7 0.0 1.6 09:40
  09:35 20.4 22.1 73 7 0.0 1.6 09:35
  09:30 20.4 21.9 74 7 0.0 1.9 09:30
  09:25 20.3 21.9 74 7 0.0 2.0 09:25
  09:20 20.0 21.6 75 7 0.0 1.9 09:20
  09:15 19.6 21.1 75 7 0.0 1.7 09:15
  09:10 19.5 20.9 75 8 0.0 1.5 09:10
  09:05 19.2 20.6 75 8 0.0 1.1 09:05
  09:00 19.1 20.4 76 8 0.0 1.1 09:00
  08:55 19.0 20.1 76 8 0.0 1.4 08:55
  08:50 18.7 19.8 77 8 0.0 1.2 08:50
  08:45 18.3 19.2 78 8 0.0 1.2 08:45
    Temp.
(2 m)
Temp.
(20 cm)
Luftfeuchte Blattnässe Nieder-
schlag
Wind  
[°C] [°C] [%] [%] [mm] [m/s]
 
  Ø 22.2 22.0 65 20 - 0.9 Ø
  Min. 14.8 13.9 - - - - Min.
  Max. 31.1 33.4 - - - - Max.
  - - - - 0.0 -
Quelle: Agrarmeteorologie Rheinland-Pfalz,
alle Angaben ohne Gewähr!
Zuletzt geändert: 20.09.18 - 09:00 Uhr